createdAt,value
2018-09-13T00:01:31.344Z,7.80
2018-09-13T00:03:59.577Z,7.50
2018-09-13T00:06:27.916Z,6.27
2018-09-13T00:08:56.037Z,6.80
2018-09-13T00:11:24.348Z,6.23
2018-09-13T00:13:52.602Z,6.23
2018-09-13T00:16:20.933Z,7.47
2018-09-13T00:18:49.297Z,6.83
2018-09-13T00:21:17.685Z,7.67
2018-09-13T00:23:46.180Z,7.07
2018-09-13T00:26:14.519Z,6.90
2018-09-13T00:28:42.636Z,7.63
2018-09-13T00:31:11.176Z,8.17
2018-09-13T00:33:39.761Z,8.47
2018-09-13T00:36:12.916Z,8.10
2018-09-13T00:38:43.237Z,8.10
2018-09-13T00:41:11.496Z,6.83
2018-09-13T00:43:39.796Z,8.23
2018-09-13T00:46:09.169Z,7.20
2018-09-13T00:48:37.429Z,6.93
2018-09-13T00:51:05.958Z,8.20
2018-09-13T00:53:34.156Z,7.43
2018-09-13T00:56:02.636Z,7.93
2018-09-13T00:58:30.936Z,8.23
2018-09-13T01:00:59.158Z,7.53
2018-09-13T01:03:27.456Z,9.93
2018-09-13T01:05:55.777Z,9.83
2018-09-13T01:08:24.156Z,10.37
2018-09-13T01:10:55.320Z,9.80
2018-09-13T01:13:23.610Z,9.70
2018-09-13T01:15:51.806Z,10.30
2018-09-13T01:18:19.946Z,10.07
2018-09-13T01:20:48.067Z,10.13
2018-09-13T01:23:16.175Z,10.70
2018-09-13T01:25:44.250Z,10.67
2018-09-13T01:28:12.415Z,11.83
2018-09-13T01:30:40.543Z,11.10
2018-09-13T01:33:08.889Z,11.30
2018-09-13T01:35:37.007Z,11.87
2018-09-13T01:38:05.278Z,11.50
2018-09-13T01:40:33.421Z,11.60
2018-09-13T01:43:01.767Z,12.53
2018-09-13T01:45:29.907Z,12.07
2018-09-13T01:47:58.219Z,10.17
2018-09-13T01:50:26.334Z,11.40
2018-09-13T01:52:54.668Z,9.33
2018-09-13T01:55:22.800Z,10.20
2018-09-13T01:57:51.101Z,10.60
2018-09-13T02:00:19.241Z,10.50
2018-09-13T02:02:47.427Z,11.37
2018-09-13T02:05:15.685Z,10.27
2018-09-13T02:07:43.886Z,11.37
2018-09-13T02:10:12.121Z,10.03
2018-09-13T02:12:40.287Z,9.23
2018-09-13T02:15:08.765Z,9.47
2018-09-13T02:17:37.217Z,8.83
2018-09-13T02:20:05.458Z,10.63
2018-09-13T02:22:33.685Z,9.13
2018-09-13T02:25:01.867Z,9.13
2018-09-13T02:27:29.903Z,9.90
2018-09-13T02:29:58.115Z,10.03
2018-09-13T02:32:26.366Z,9.27
2018-09-13T02:34:54.931Z,9.23
2018-09-13T02:37:23.293Z,10.80
2018-09-13T02:39:51.557Z,10.50
2018-09-13T02:42:19.639Z,10.73
2018-09-13T02:44:47.805Z,11.47
2018-09-13T02:47:15.997Z,11.13
2018-09-13T02:49:44.169Z,11.27
2018-09-13T02:52:12.445Z,11.37
2018-09-13T02:54:40.692Z,11.27
2018-09-13T02:57:08.824Z,12.60
2018-09-13T02:59:37.045Z,12.43
2018-09-13T03:02:05.193Z,12.30
2018-09-13T03:04:33.422Z,12.40
2018-09-13T03:07:01.867Z,12.47
2018-09-13T03:09:30.202Z,12.00
2018-09-13T03:11:58.383Z,10.13
2018-09-13T03:14:26.579Z,10.27
2018-09-13T03:16:54.681Z,9.87
2018-09-13T03:19:22.874Z,11.50
2018-09-13T03:21:51.040Z,11.03
2018-09-13T03:24:19.261Z,11.23
2018-09-13T03:26:47.474Z,10.83
2018-09-13T03:29:15.891Z,11.27
2018-09-13T03:31:44.122Z,11.10
2018-09-13T03:34:12.472Z,10.83
2018-09-13T03:36:40.991Z,9.97
2018-09-13T03:39:10.818Z,10.50
2018-09-13T03:41:39.192Z,10.43
2018-09-13T03:44:07.530Z,9.40
2018-09-13T03:46:36.059Z,9.80
2018-09-13T03:49:04.290Z,10.30
2018-09-13T03:51:32.568Z,10.30
2018-09-13T03:54:00.788Z,10.30
2018-09-13T03:56:28.898Z,9.03
2018-09-13T03:58:57.250Z,9.70
2018-09-13T04:01:25.370Z,8.43
2018-09-13T04:03:53.813Z,9.40
2018-09-13T04:06:22.201Z,9.00
2018-09-13T04:08:50.583Z,7.80
2018-09-13T04:11:18.897Z,8.57
2018-09-13T04:13:47.198Z,7.53
2018-09-13T04:16:15.431Z,7.80
2018-09-13T04:18:43.575Z,7.60
2018-09-13T04:21:11.815Z,8.63
2018-09-13T04:23:39.965Z,7.67
2018-09-13T04:26:08.202Z,8.67
2018-09-13T04:28:36.314Z,7.90
2018-09-13T04:31:04.474Z,7.77
2018-09-13T04:33:32.595Z,7.83
2018-09-13T04:36:01.171Z,8.50
2018-09-13T04:38:29.473Z,8.20
2018-09-13T04:40:57.774Z,8.30
2018-09-13T04:43:25.942Z,7.93
2018-09-13T04:45:54.101Z,9.37
2018-09-13T04:48:22.297Z,8.70
2018-09-13T04:50:50.446Z,7.73
2018-09-13T04:53:18.539Z,7.77
2018-09-13T04:55:46.907Z,7.07
2018-09-13T04:58:15.144Z,7.87
2018-09-13T05:00:43.453Z,7.40
2018-09-13T05:03:11.643Z,7.50
2018-09-13T05:05:39.913Z,8.17
2018-09-13T06:04:36.789Z,6.63
2018-09-13T07:35:15.928Z,8.57
2018-09-13T07:38:03.521Z,7.57
2018-09-13T07:40:43.265Z,9.90
2018-09-13T08:00:25.852Z,4.77
2018-09-13T08:03:28.797Z,4.77
2018-09-13T08:34:13.166Z,4.03
2018-09-13T08:44:00.789Z,4.57
2018-09-13T09:27:13.168Z,2.80
2018-09-13T10:41:18.865Z,2.00
2018-09-13T10:43:55.952Z,2.30
2018-09-13T10:46:28.628Z,2.67
2018-09-13T10:49:04.727Z,3.50
2018-09-13T10:51:45.276Z,2.70
2018-09-13T10:54:21.909Z,2.47
2018-09-13T10:56:54.509Z,3.67
2018-09-13T10:59:26.528Z,2.80
2018-09-13T11:01:55.808Z,3.23
2018-09-13T11:04:26.395Z,3.50
2018-09-13T11:06:55.067Z,2.50
2018-09-13T11:09:25.087Z,2.83
2018-09-13T11:12:04.090Z,2.30
2018-09-13T11:15:15.892Z,2.50
2018-09-13T11:17:44.507Z,2.50
2018-09-13T11:20:20.347Z,2.27
2018-09-13T11:23:18.609Z,2.00
2018-09-13T11:25:55.128Z,2.00
2018-09-13T11:42:20.528Z,3.10
2018-09-13T11:44:53.907Z,2.30
2018-09-13T11:47:23.107Z,2.20
2018-09-13T11:49:51.888Z,1.93
2018-09-13T11:52:24.495Z,2.27
2018-09-13T11:54:53.088Z,1.90
2018-09-13T11:57:21.467Z,2.00
2018-09-13T11:59:50.127Z,1.90
2018-09-13T12:02:18.808Z,1.67
2018-09-13T12:04:47.350Z,1.90
2018-09-13T12:07:16.287Z,1.30
2018-09-13T12:09:52.606Z,1.60
2018-09-13T12:12:21.208Z,1.30
2018-09-13T12:14:49.932Z,1.57
2018-09-13T12:17:19.112Z,1.43
2018-09-13T12:19:47.869Z,1.50
2018-09-13T12:22:17.676Z,1.73
2018-09-13T12:24:49.375Z,1.90
2018-09-13T12:27:17.742Z,1.50
2018-09-13T12:29:46.955Z,1.40
2018-09-13T12:32:15.732Z,1.40
2018-09-13T12:34:46.393Z,1.80
2018-09-13T12:37:15.026Z,2.03
2018-09-13T14:21:24.284Z,2.50
2018-09-13T14:23:52.883Z,2.30
2018-09-13T15:04:07.666Z,2.23
2018-09-13T15:06:36.427Z,2.07
2018-09-13T15:09:13.572Z,2.27
2018-09-13T15:15:08.164Z,2.17
2018-09-13T15:17:37.066Z,2.43
2018-09-13T15:20:07.709Z,2.70
2018-09-13T15:22:36.064Z,3.43
2018-09-13T15:38:48.551Z,3.57
2018-09-13T15:41:16.941Z,4.00
2018-09-13T15:43:45.560Z,4.30
2018-09-13T15:46:13.901Z,4.03
2018-09-13T15:48:42.144Z,4.60
2018-09-13T15:51:10.538Z,4.07
2018-09-13T15:53:38.918Z,4.00
2018-09-13T15:56:08.312Z,4.30
2018-09-13T15:58:36.812Z,4.03
2018-09-13T16:01:05.691Z,4.20
2018-09-13T16:03:34.079Z,3.97
2018-09-13T16:06:02.654Z,4.10
2018-09-13T16:08:31.389Z,4.60
2018-09-13T16:10:59.708Z,4.00
2018-09-13T16:13:28.462Z,3.87
2018-09-13T16:15:56.873Z,4.13
2018-09-13T16:18:25.414Z,4.50
2018-09-13T16:20:54.238Z,4.40
2018-09-13T16:23:22.678Z,3.83
2018-09-13T16:25:50.997Z,5.10
2018-09-13T16:43:33.264Z,5.53
2018-09-13T16:46:01.573Z,6.30
2018-09-13T16:48:35.443Z,6.20
2018-09-13T16:51:03.663Z,5.37
2018-09-13T16:53:31.861Z,5.37
2018-09-13T16:56:01.622Z,5.90
2018-09-13T16:58:29.782Z,5.00
2018-09-13T17:00:58.078Z,6.10
2018-09-13T17:03:26.358Z,6.67
2018-09-13T17:05:54.758Z,6.00
2018-09-13T17:08:23.524Z,5.50
2018-09-13T17:10:53.264Z,6.20
2018-09-13T17:13:22.058Z,6.27
2018-09-13T17:15:50.239Z,6.27
2018-09-13T17:18:18.625Z,6.13
2018-09-13T17:20:46.877Z,6.40
2018-09-13T17:23:15.801Z,6.80
2018-09-13T17:25:44.321Z,6.63
2018-09-13T17:28:12.761Z,6.70
2018-09-13T17:30:40.883Z,6.70
2018-09-13T17:33:09.358Z,6.80
2018-09-13T17:35:37.610Z,6.63
2018-09-13T17:38:05.869Z,6.43
2018-09-13T17:40:34.749Z,6.70
2018-09-13T17:43:02.982Z,7.00
2018-09-13T17:45:31.141Z,7.27
2018-09-13T17:48:00.215Z,7.50
2018-09-13T17:50:28.398Z,7.40
2018-09-13T17:52:56.799Z,7.63
2018-09-13T17:55:24.997Z,6.83
2018-09-13T17:57:53.341Z,7.77
2018-09-13T18:00:21.573Z,8.13
2018-09-13T18:02:49.867Z,7.77
2018-09-13T18:05:18.049Z,8.10
2018-09-13T18:07:46.550Z,8.00
2018-09-13T18:10:14.837Z,9.17
2018-09-13T18:12:43.162Z,8.37
2018-09-13T18:15:11.449Z,8.20
2018-09-13T18:17:39.801Z,8.40
2018-09-13T18:20:08.102Z,9.17
2018-09-13T18:22:36.430Z,8.87
2018-09-13T18:25:04.593Z,8.40
2018-09-13T18:27:32.886Z,9.30
2018-09-13T18:30:01.065Z,9.50
2018-09-13T18:32:29.307Z,8.50
2018-09-13T18:34:57.756Z,9.23
2018-09-13T18:37:25.950Z,9.83
2018-09-13T18:39:54.080Z,9.63
2018-09-13T18:42:22.373Z,10.47
2018-09-13T18:44:50.600Z,10.47
2018-09-13T18:47:18.911Z,9.93
2018-09-13T18:49:47.553Z,11.10
2018-09-13T18:52:15.694Z,11.73
2018-09-13T18:54:43.978Z,10.83
2018-09-13T18:57:14.282Z,10.17
2018-09-13T18:59:42.948Z,10.57
2018-09-13T19:03:01.344Z,10.77
2018-09-13T19:05:40.762Z,10.20
2018-09-13T19:08:14.611Z,10.50
2018-09-13T19:10:59.811Z,10.63
2018-09-13T19:13:28.741Z,10.97
2018-09-13T19:15:59.508Z,11.23
2018-09-13T19:18:43.463Z,11.50
2018-09-13T19:21:13.279Z,11.07
2018-09-13T19:23:59.618Z,11.60
2018-09-13T19:26:38.723Z,10.77
2018-09-13T19:29:11.473Z,10.30
2018-09-13T19:31:57.540Z,10.97
2018-09-13T19:34:26.036Z,11.53
2018-09-13T19:36:55.962Z,10.87
2018-09-13T19:39:24.296Z,11.83
2018-09-13T19:41:53.421Z,10.70
2018-09-13T19:44:22.454Z,11.10
2018-09-13T19:46:57.972Z,11.33
2018-09-13T19:49:26.519Z,10.47
2018-09-13T19:55:23.440Z,11.33
2018-09-13T19:58:08.874Z,10.73
2018-09-13T20:08:35.606Z,10.60
2018-09-13T20:20:01.235Z,9.87
2018-09-13T20:39:44.643Z,11.57
2018-09-13T20:42:29.942Z,12.23
2018-09-13T20:44:58.229Z,11.53
2018-09-13T20:51:19.564Z,11.40
2018-09-13T20:54:01.353Z,13.30
2018-09-13T20:59:45.852Z,12.03
2018-09-13T21:02:14.159Z,12.07
2018-09-13T21:04:42.263Z,12.27
2018-09-13T21:07:10.644Z,12.67
2018-09-13T21:09:38.761Z,12.63
2018-09-13T21:12:06.984Z,12.80
2018-09-13T21:14:35.276Z,10.70
2018-09-13T21:17:03.706Z,8.97
2018-09-13T21:19:32.016Z,10.27
2018-09-13T21:22:00.559Z,10.40
2018-09-13T21:24:28.605Z,11.23
2018-09-13T21:26:56.950Z,11.83
2018-09-13T21:29:25.251Z,11.37
2018-09-13T21:31:53.878Z,12.07
2018-09-13T21:34:21.861Z,12.90
2018-09-13T21:36:49.964Z,11.33
2018-09-13T21:39:17.993Z,12.97
2018-09-13T21:41:46.028Z,12.23
2018-09-13T21:44:14.211Z,10.73
2018-09-13T21:46:42.218Z,11.93
2018-09-13T21:49:10.250Z,12.83
2018-09-13T21:51:38.665Z,11.60
2018-09-13T21:54:06.900Z,12.30
2018-09-13T21:56:35.090Z,12.80
2018-09-13T21:59:03.745Z,12.30
2018-09-13T22:01:32.481Z,12.07
2018-09-13T22:04:00.741Z,13.37
2018-09-13T22:06:28.725Z,12.10
2018-09-13T22:08:56.724Z,13.53
2018-09-13T22:11:24.933Z,12.20
2018-09-13T22:13:53.015Z,12.53
2018-09-13T22:16:21.079Z,10.67
2018-09-13T22:18:49.140Z,10.40
2018-09-13T22:21:17.297Z,11.03
2018-09-13T22:23:47.023Z,11.10
2018-09-13T22:26:15.204Z,11.70
2018-09-13T22:28:43.325Z,7.00
2018-09-13T22:31:11.425Z,8.70
2018-09-13T22:33:39.858Z,8.97
2018-09-13T22:36:07.986Z,11.00
2018-09-13T22:38:36.260Z,11.77
2018-09-13T22:41:04.641Z,11.37
2018-09-13T22:43:38.025Z,10.57
2018-09-13T22:46:06.096Z,10.60
2018-09-13T22:48:34.115Z,10.53
2018-09-13T22:51:03.281Z,10.50
2018-09-13T22:53:32.158Z,10.67
2018-09-13T22:56:00.123Z,11.87
2018-09-13T22:58:28.610Z,10.17
2018-09-13T23:00:58.130Z,10.43
2018-09-13T23:03:29.245Z,11.10
2018-09-13T23:05:57.660Z,10.37
2018-09-13T23:08:25.715Z,9.77
2018-09-13T23:10:53.772Z,7.63
2018-09-13T23:13:22.085Z,10.67
2018-09-13T23:15:50.166Z,8.60
2018-09-13T23:18:18.732Z,10.30
2018-09-13T23:20:46.774Z,10.00
2018-09-13T23:23:14.810Z,10.10
2018-09-13T23:25:43.215Z,10.40
2018-09-13T23:28:11.445Z,11.37
2018-09-13T23:30:42.695Z,10.73
2018-09-13T23:33:10.705Z,11.17
2018-09-13T23:35:39.280Z,11.77
2018-09-13T23:38:07.325Z,10.07
2018-09-13T23:40:35.451Z,10.97
2018-09-13T23:43:03.634Z,11.30
2018-09-13T23:45:31.776Z,10.30
2018-09-13T23:48:00.400Z,11.80
2018-09-13T23:50:28.427Z,11.03
2018-09-13T23:52:56.670Z,10.50
2018-09-13T23:55:24.665Z,10.37
2018-09-13T23:57:53.897Z,11.13
